sensor_id;sensor_type;location;lat;lon;timestamp;temperature;humidity
736;DHT22;352;48.626;9.238;2022-09-01T00:01:45;16.20;99.90
736;DHT22;352;48.626;9.238;2022-09-01T00:04:16;16.20;99.90
736;DHT22;352;48.626;9.238;2022-09-01T00:06:43;16.20;99.90
736;DHT22;352;48.626;9.238;2022-09-01T00:09:13;16.10;99.90
736;DHT22;352;48.626;9.238;2022-09-01T00:11:43;16.10;99.90
736;DHT22;352;48.626;9.238;2022-09-01T00:14:11;16.10;99.90
736;DHT22;352;48.626;9.238;2022-09-01T00:16:38;16.10;99.90
736;DHT22;352;48.626;9.238;2022-09-01T00:19:06;16.10;99.90
736;DHT22;352;48.626;9.238;2022-09-01T00:21:35;16.10;99.90
736;DHT22;352;48.626;9.238;2022-09-01T00:24:03;16.10;99.90
736;DHT22;352;48.626;9.238;2022-09-01T00:26:30;16.10;99.90
736;DHT22;352;48.626;9.238;2022-09-01T00:28:56;16.00;99.90
736;DHT22;352;48.626;9.238;2022-09-01T00:31:26;16.00;99.90
736;DHT22;352;48.626;9.238;2022-09-01T00:33:53;16.00;99.90
736;DHT22;352;48.626;9.238;2022-09-01T00:36:20;16.00;99.90
736;DHT22;352;48.626;9.238;2022-09-01T00:38:48;16.00;99.90
736;DHT22;352;48.626;9.238;2022-09-01T00:41:16;16.00;99.90
736;DHT22;352;48.626;9.238;2022-09-01T00:43:46;16.00;99.90
736;DHT22;352;48.626;9.238;2022-09-01T00:46:15;16.00;99.90
736;DHT22;352;48.626;9.238;2022-09-01T00:48:44;16.00;99.90
736;DHT22;352;48.626;9.238;2022-09-01T00:51:13;16.00;99.90
736;DHT22;352;48.626;9.238;2022-09-01T00:53:41;16.00;99.90
736;DHT22;352;48.626;9.238;2022-09-01T00:56:08;15.90;99.90
736;DHT22;352;48.626;9.238;2022-09-01T00:58:36;15.90;99.90
736;DHT22;352;48.626;9.238;2022-09-01T01:01:05;15.90;99.90
736;DHT22;352;48.626;9.238;2022-09-01T01:03:32;15.90;99.90
736;DHT22;352;48.626;9.238;2022-09-01T01:06:05;15.90;99.90
736;DHT22;352;48.626;9.238;2022-09-01T01:08:37;15.80;99.90
736;DHT22;352;48.626;9.238;2022-09-01T01:11:10;15.80;99.90
736;DHT22;352;48.626;9.238;2022-09-01T01:13:51;15.80;99.90
736;DHT22;352;48.626;9.238;2022-09-01T01:16:19;15.80;99.90
736;DHT22;352;48.626;9.238;2022-09-01T01:18:46;15.70;99.90
736;DHT22;352;48.626;9.238;2022-09-01T01:21:18;15.70;99.90
736;DHT22;352;48.626;9.238;2022-09-01T01:26:40;15.70;99.90
736;DHT22;352;48.626;9.238;2022-09-01T01:29:07;15.70;99.90
736;DHT22;352;48.626;9.238;2022-09-01T01:31:34;15.70;99.90
736;DHT22;352;48.626;9.238;2022-09-01T01:34:02;15.60;99.90
736;DHT22;352;48.626;9.238;2022-09-01T01:36:36;15.60;99.90
736;DHT22;352;48.626;9.238;2022-09-01T01:39:08;15.60;99.90
736;DHT22;352;48.626;9.238;2022-09-01T01:41:37;15.60;99.90
736;DHT22;352;48.626;9.238;2022-09-01T01:44:08;15.60;99.90
736;DHT22;352;48.626;9.238;2022-09-01T01:46:40;15.60;99.90
736;DHT22;352;48.626;9.238;2022-09-01T01:49:07;15.50;99.90
736;DHT22;352;48.626;9.238;2022-09-01T01:51:34;15.50;99.90
736;DHT22;352;48.626;9.238;2022-09-01T01:54:01;15.50;99.90
736;DHT22;352;48.626;9.238;2022-09-01T01:56:30;15.50;99.90
736;DHT22;352;48.626;9.238;2022-09-01T01:58:58;15.50;99.90
736;DHT22;352;48.626;9.238;2022-09-01T02:01:28;15.50;99.90
736;DHT22;352;48.626;9.238;2022-09-01T02:03:57;15.40;99.90
736;DHT22;352;48.626;9.238;2022-09-01T02:06:25;15.40;99.90
736;DHT22;352;48.626;9.238;2022-09-01T02:08:54;15.40;99.90
736;DHT22;352;48.626;9.238;2022-09-01T02:11:22;15.40;99.90
736;DHT22;352;48.626;9.238;2022-09-01T02:13:50;15.30;99.90
736;DHT22;352;48.626;9.238;2022-09-01T02:16:22;15.30;99.90
736;DHT22;352;48.626;9.238;2022-09-01T02:18:50;15.30;99.90
736;DHT22;352;48.626;9.238;2022-09-01T02:21:22;15.30;99.90
736;DHT22;352;48.626;9.238;2022-09-01T02:23:52;15.30;99.90
736;DHT22;352;48.626;9.238;2022-09-01T02:26:24;15.20;99.90
736;DHT22;352;48.626;9.238;2022-09-01T02:28:52;15.20;99.90
736;DHT22;352;48.626;9.238;2022-09-01T02:31:19;15.20;99.90
736;DHT22;352;48.626;9.238;2022-09-01T02:33:47;15.20;99.90
736;DHT22;352;48.626;9.238;2022-09-01T02:36:16;15.20;99.90
736;DHT22;352;48.626;9.238;2022-09-01T02:38:44;15.20;99.90
736;DHT22;352;48.626;9.238;2022-09-01T02:41:14;15.10;99.90
736;DHT22;352;48.626;9.238;2022-09-01T02:43:44;15.20;99.90
736;DHT22;352;48.626;9.238;2022-09-01T02:46:12;15.20;99.90
736;DHT22;352;48.626;9.238;2022-09-01T02:48:41;15.20;99.90
736;DHT22;352;48.626;9.238;2022-09-01T02:51:15;15.20;99.90
736;DHT22;352;48.626;9.238;2022-09-01T02:53:45;15.10;99.90
736;DHT22;352;48.626;9.238;2022-09-01T02:56:14;15.10;99.90
736;DHT22;352;48.626;9.238;2022-09-01T02:58:45;15.10;99.90
736;DHT22;352;48.626;9.238;2022-09-01T03:01:14;15.10;99.90
736;DHT22;352;48.626;9.238;2022-09-01T03:03:45;15.10;99.90
736;DHT22;352;48.626;9.238;2022-09-01T03:06:12;15.10;99.90
736;DHT22;352;48.626;9.238;2022-09-01T03:08:39;15.10;99.90
736;DHT22;352;48.626;9.238;2022-09-01T03:11:07;15.10;99.90
736;DHT22;352;48.626;9.238;2022-09-01T03:13:36;15.10;99.90
736;DHT22;352;48.626;9.238;2022-09-01T03:16:03;15.10;99.90
736;DHT22;352;48.626;9.238;2022-09-01T03:18:30;15.10;99.90
736;DHT22;352;48.626;9.238;2022-09-01T03:20:57;15.10;99.90
736;DHT22;352;48.626;9.238;2022-09-01T03:23:24;15.10;99.90
736;DHT22;352;48.626;9.238;2022-09-01T03:25:52;15.10;99.90
736;DHT22;352;48.626;9.238;2022-09-01T03:28:20;15.10;99.90
736;DHT22;352;48.626;9.238;2022-09-01T03:30:49;15.10;99.90
736;DHT22;352;48.626;9.238;2022-09-01T03:33:17;15.00;99.90
736;DHT22;352;48.626;9.238;2022-09-01T03:35:45;15.00;99.90
736;DHT22;352;48.626;9.238;2022-09-01T03:38:13;15.00;99.90
736;DHT22;352;48.626;9.238;2022-09-01T03:40:48;15.00;99.90
736;DHT22;352;48.626;9.238;2022-09-01T03:43:15;15.00;99.90
736;DHT22;352;48.626;9.238;2022-09-01T03:45:45;14.90;99.90
736;DHT22;352;48.626;9.238;2022-09-01T03:48:11;14.90;99.90
736;DHT22;352;48.626;9.238;2022-09-01T03:50:43;14.90;99.90
736;DHT22;352;48.626;9.238;2022-09-01T03:53:14;14.90;99.90
736;DHT22;352;48.626;9.238;2022-09-01T03:55:43;14.90;99.90
736;DHT22;352;48.626;9.238;2022-09-01T03:58:11;15.00;99.90
736;DHT22;352;48.626;9.238;2022-09-01T04:00:41;15.10;99.90
736;DHT22;352;48.626;9.238;2022-09-01T04:03:11;15.10;99.90
736;DHT22;352;48.626;9.238;2022-09-01T04:05:41;15.20;99.90
736;DHT22;352;48.626;9.238;2022-09-01T04:08:09;15.20;99.90
736;DHT22;352;48.626;9.238;2022-09-01T04:10:43;15.30;99.90
736;DHT22;352;48.626;9.238;2022-09-01T04:13:15;15.40;99.90
736;DHT22;352;48.626;9.238;2022-09-01T04:15:42;15.40;99.90
736;DHT22;352;48.626;9.238;2022-09-01T04:18:11;15.50;99.90
736;DHT22;352;48.626;9.238;2022-09-01T04:20:46;15.50;99.90
736;DHT22;352;48.626;9.238;2022-09-01T04:23:17;15.50;99.90
736;DHT22;352;48.626;9.238;2022-09-01T04:25:52;15.60;99.90
736;DHT22;352;48.626;9.238;2022-09-01T04:28:24;15.60;99.90
736;DHT22;352;48.626;9.238;2022-09-01T04:30:52;15.60;99.90
736;DHT22;352;48.626;9.238;2022-09-01T04:33:23;15.60;99.90
736;DHT22;352;48.626;9.238;2022-09-01T04:35:51;15.70;99.90
736;DHT22;352;48.626;9.238;2022-09-01T04:38:22;15.70;99.90
736;DHT22;352;48.626;9.238;2022-09-01T04:40:49;15.70;99.90
736;DHT22;352;48.626;9.238;2022-09-01T04:43:16;15.80;99.90
736;DHT22;352;48.626;9.238;2022-09-01T04:45:45;15.80;99.90
736;DHT22;352;48.626;9.238;2022-09-01T04:48:13;15.80;99.90
736;DHT22;352;48.626;9.238;2022-09-01T04:50:41;15.80;99.90
736;DHT22;352;48.626;9.238;2022-09-01T04:53:09;15.80;99.90
736;DHT22;352;48.626;9.238;2022-09-01T04:55:38;15.90;99.90
736;DHT22;352;48.626;9.238;2022-09-01T04:58:09;15.80;99.90
736;DHT22;352;48.626;9.238;2022-09-01T05:00:38;15.80;99.90
736;DHT22;352;48.626;9.238;2022-09-01T05:03:05;15.90;99.90
736;DHT22;352;48.626;9.238;2022-09-01T05:05:37;15.90;99.90
736;DHT22;352;48.626;9.238;2022-09-01T05:08:09;15.90;99.90
736;DHT22;352;48.626;9.238;2022-09-01T05:10:42;16.00;99.90
736;DHT22;352;48.626;9.238;2022-09-01T05:13:10;16.00;99.90
736;DHT22;352;48.626;9.238;2022-09-01T05:15:38;16.00;99.90
736;DHT22;352;48.626;9.238;2022-09-01T05:18:12;16.00;99.90
736;DHT22;352;48.626;9.238;2022-09-01T05:20:39;16.10;99.90
736;DHT22;352;48.626;9.238;2022-09-01T05:23:10;16.20;99.90
736;DHT22;352;48.626;9.238;2022-09-01T05:25:39;16.30;99.90
736;DHT22;352;48.626;9.238;2022-09-01T05:28:08;16.50;99.90
736;DHT22;352;48.626;9.238;2022-09-01T05:30:36;16.60;99.90
736;DHT22;352;48.626;9.238;2022-09-01T05:33:05;16.70;99.90
736;DHT22;352;48.626;9.238;2022-09-01T05:35:37;16.80;99.90
736;DHT22;352;48.626;9.238;2022-09-01T05:38:05;17.00;99.90
736;DHT22;352;48.626;9.238;2022-09-01T05:40:39;17.00;99.90
736;DHT22;352;48.626;9.238;2022-09-01T05:43:07;17.00;99.90
736;DHT22;352;48.626;9.238;2022-09-01T05:45:37;16.90;99.90
736;DHT22;352;48.626;9.238;2022-09-01T05:48:05;16.90;99.90
736;DHT22;352;48.626;9.238;2022-09-01T05:50:33;16.90;99.90
736;DHT22;352;48.626;9.238;2022-09-01T05:53:00;16.90;99.90
736;DHT22;352;48.626;9.238;2022-09-01T05:55:36;17.00;99.90
736;DHT22;352;48.626;9.238;2022-09-01T05:58:04;17.00;99.90
736;DHT22;352;48.626;9.238;2022-09-01T06:00:31;17.00;99.90
736;DHT22;352;48.626;9.238;2022-09-01T06:02:59;17.10;99.90
736;DHT22;352;48.626;9.238;2022-09-01T06:05:28;17.10;99.90
736;DHT22;352;48.626;9.238;2022-09-01T06:07:56;17.30;99.90
736;DHT22;352;48.626;9.238;2022-09-01T06:10:23;17.30;99.90
736;DHT22;352;48.626;9.238;2022-09-01T06:12:50;17.40;99.90
736;DHT22;352;48.626;9.238;2022-09-01T06:15:19;17.50;99.90
736;DHT22;352;48.626;9.238;2022-09-01T06:17:47;17.60;99.90
736;DHT22;352;48.626;9.238;2022-09-01T06:20:13;17.70;99.90
736;DHT22;352;48.626;9.238;2022-09-01T06:22:43;17.80;99.90
736;DHT22;352;48.626;9.238;2022-09-01T06:25:10;18.00;99.90
736;DHT22;352;48.626;9.238;2022-09-01T06:27:37;18.10;99.90
736;DHT22;352;48.626;9.238;2022-09-01T06:30:06;18.30;99.90
736;DHT22;352;48.626;9.238;2022-09-01T06:32:40;18.50;99.90
736;DHT22;352;48.626;9.238;2022-09-01T06:35:08;18.60;99.90
736;DHT22;352;48.626;9.238;2022-09-01T06:37:36;18.70;99.90
736;DHT22;352;48.626;9.238;2022-09-01T06:40:03;18.80;99.90
736;DHT22;352;48.626;9.238;2022-09-01T06:42:31;18.90;99.90
736;DHT22;352;48.626;9.238;2022-09-01T06:44:59;19.10;99.90
736;DHT22;352;48.626;9.238;2022-09-01T06:47:26;19.40;99.90
736;DHT22;352;48.626;9.238;2022-09-01T06:49:55;19.90;99.90
736;DHT22;352;48.626;9.238;2022-09-01T06:52:23;20.70;99.90
736;DHT22;352;48.626;9.238;2022-09-01T06:54:50;21.00;99.90
736;DHT22;352;48.626;9.238;2022-09-01T06:57:18;21.00;99.90
736;DHT22;352;48.626;9.238;2022-09-01T06:59:47;20.80;99.90
736;DHT22;352;48.626;9.238;2022-09-01T07:02:14;20.80;99.90
736;DHT22;352;48.626;9.238;2022-09-01T07:04:44;20.60;99.90
736;DHT22;352;48.626;9.238;2022-09-01T07:07:12;20.40;99.90
736;DHT22;352;48.626;9.238;2022-09-01T07:09:39;20.30;99.90
736;DHT22;352;48.626;9.238;2022-09-01T07:12:07;20.30;99.90
736;DHT22;352;48.626;9.238;2022-09-01T07:14:34;20.30;99.90
736;DHT22;352;48.626;9.238;2022-09-01T07:17:04;20.30;99.90
736;DHT22;352;48.626;9.238;2022-09-01T07:19:32;20.40;99.90
736;DHT22;352;48.626;9.238;2022-09-01T07:22:00;20.40;99.90
736;DHT22;352;48.626;9.238;2022-09-01T07:24:28;20.50;99.90
736;DHT22;352;48.626;9.238;2022-09-01T07:26:55;20.60;99.90
736;DHT22;352;48.626;9.238;2022-09-01T07:29:22;20.30;99.90
736;DHT22;352;48.626;9.238;2022-09-01T07:31:50;20.30;99.90
736;DHT22;352;48.626;9.238;2022-09-01T07:34:20;20.50;99.90
736;DHT22;352;48.626;9.238;2022-09-01T07:36:47;20.60;99.90
736;DHT22;352;48.626;9.238;2022-09-01T07:39:14;20.70;99.90
736;DHT22;352;48.626;9.238;2022-09-01T07:41:42;21.00;99.90
736;DHT22;352;48.626;9.238;2022-09-01T07:44:09;21.30;99.90
736;DHT22;352;48.626;9.238;2022-09-01T07:46:39;21.60;99.90
736;DHT22;352;48.626;9.238;2022-09-01T07:49:07;21.70;99.90
736;DHT22;352;48.626;9.238;2022-09-01T07:51:34;21.70;99.90
736;DHT22;352;48.626;9.238;2022-09-01T07:54:01;22.00;99.90
736;DHT22;352;48.626;9.238;2022-09-01T07:56:28;22.60;99.90
736;DHT22;352;48.626;9.238;2022-09-01T07:58:57;23.20;99.90
736;DHT22;352;48.626;9.238;2022-09-01T08:01:26;23.20;99.90
736;DHT22;352;48.626;9.238;2022-09-01T08:03:54;23.10;99.90
736;DHT22;352;48.626;9.238;2022-09-01T08:06:23;23.00;99.90
736;DHT22;352;48.626;9.238;2022-09-01T08:08:51;23.00;99.90
736;DHT22;352;48.626;9.238;2022-09-01T08:11:20;23.10;99.90
736;DHT22;352;48.626;9.238;2022-09-01T08:13:50;23.40;99.90
736;DHT22;352;48.626;9.238;2022-09-01T08:16:18;23.30;99.90
736;DHT22;352;48.626;9.238;2022-09-01T08:18:46;23.30;99.90
736;DHT22;352;48.626;9.238;2022-09-01T08:21:14;23.40;99.90
736;DHT22;352;48.626;9.238;2022-09-01T08:23:41;23.30;99.90
736;DHT22;352;48.626;9.238;2022-09-01T08:26:10;23.10;99.90
736;DHT22;352;48.626;9.238;2022-09-01T08:28:37;22.80;99.90
736;DHT22;352;48.626;9.238;2022-09-01T08:31:06;22.80;99.90
736;DHT22;352;48.626;9.238;2022-09-01T08:33:34;22.60;99.90
736;DHT22;352;48.626;9.238;2022-09-01T08:36:01;22.20;99.90
736;DHT22;352;48.626;9.238;2022-09-01T08:38:28;22.30;99.90
736;DHT22;352;48.626;9.238;2022-09-01T08:40:56;22.30;99.90
736;DHT22;352;48.626;9.238;2022-09-01T08:43:41;22.40;99.90
736;DHT22;352;48.626;9.238;2022-09-01T08:46:14;22.50;99.90
736;DHT22;352;48.626;9.238;2022-09-01T08:48:47;22.40;99.90
736;DHT22;352;48.626;9.238;2022-09-01T08:51:19;22.40;99.90
736;DHT22;352;48.626;9.238;2022-09-01T08:53:54;22.40;99.90
736;DHT22;352;48.626;9.238;2022-09-01T08:56:22;22.50;99.90
736;DHT22;352;48.626;9.238;2022-09-01T08:58:49;22.70;99.80
736;DHT22;352;48.626;9.238;2022-09-01T09:01:23;22.60;99.70
736;DHT22;352;48.626;9.238;2022-09-01T09:04:08;23.20;99.90
736;DHT22;352;48.626;9.238;2022-09-01T09:06:45;24.20;97.30
736;DHT22;352;48.626;9.238;2022-09-01T09:09:13;24.20;96.40
736;DHT22;352;48.626;9.238;2022-09-01T09:12:11;25.50;94.30
736;DHT22;352;48.626;9.238;2022-09-01T09:15:01;24.90;93.80
736;DHT22;352;48.626;9.238;2022-09-01T09:17:34;24.30;94.90
736;DHT22;352;48.626;9.238;2022-09-01T09:20:05;24.20;95.10
736;DHT22;352;48.626;9.238;2022-09-01T09:22:32;24.20;95.20
736;DHT22;352;48.626;9.238;2022-09-01T09:25:03;24.60;95.70
736;DHT22;352;48.626;9.238;2022-09-01T09:27:34;25.10;95.00
736;DHT22;352;48.626;9.238;2022-09-01T09:30:04;24.90;93.20
736;DHT22;352;48.626;9.238;2022-09-01T09:32:47;24.50;93.80
736;DHT22;352;48.626;9.238;2022-09-01T09:35:24;24.30;94.30
736;DHT22;352;48.626;9.238;2022-09-01T09:37:52;24.20;94.70
736;DHT22;352;48.626;9.238;2022-09-01T09:40:20;24.10;95.10
736;DHT22;352;48.626;9.238;2022-09-01T09:43:05;23.60;94.80
736;DHT22;352;48.626;9.238;2022-09-01T09:45:35;23.50;95.80
736;DHT22;352;48.626;9.238;2022-09-01T09:48:07;23.70;95.90
736;DHT22;352;48.626;9.238;2022-09-01T09:50:37;24.10;95.00
736;DHT22;352;48.626;9.238;2022-09-01T09:53:14;24.40;94.90
736;DHT22;352;48.626;9.238;2022-09-01T09:56:00;24.40;94.60
736;DHT22;352;48.626;9.238;2022-09-01T09:58:34;24.40;94.60
736;DHT22;352;48.626;9.238;2022-09-01T10:01:05;24.20;93.90
736;DHT22;352;48.626;9.238;2022-09-01T10:03:38;24.30;93.80
736;DHT22;352;48.626;9.238;2022-09-01T10:06:13;24.10;93.90
736;DHT22;352;48.626;9.238;2022-09-01T10:08:54;24.00;94.20
736;DHT22;352;48.626;9.238;2022-09-01T10:11:28;23.70;94.40
736;DHT22;352;48.626;9.238;2022-09-01T10:13:56;23.60;95.10
736;DHT22;352;48.626;9.238;2022-09-01T10:16:27;23.70;95.30
736;DHT22;352;48.626;9.238;2022-09-01T10:18:56;24.00;94.60
736;DHT22;352;48.626;9.238;2022-09-01T10:21:33;24.60;93.70
736;DHT22;352;48.626;9.238;2022-09-01T10:24:15;24.50;93.20
736;DHT22;352;48.626;9.238;2022-09-01T10:26:45;24.30;93.60
736;DHT22;352;48.626;9.238;2022-09-01T10:29:19;24.30;93.10
736;DHT22;352;48.626;9.238;2022-09-01T10:31:46;25.10;93.00
736;DHT22;352;48.626;9.238;2022-09-01T10:34:15;26.30;91.10
736;DHT22;352;48.626;9.238;2022-09-01T10:36:46;26.80;90.00
736;DHT22;352;48.626;9.238;2022-09-01T10:39:16;27.00;89.40
736;DHT22;352;48.626;9.238;2022-09-01T10:41:45;27.10;88.40
736;DHT22;352;48.626;9.238;2022-09-01T10:44:19;26.50;88.50
736;DHT22;352;48.626;9.238;2022-09-01T10:46:47;25.60;89.80
736;DHT22;352;48.626;9.238;2022-09-01T10:52:52;24.40;91.80
736;DHT22;352;48.626;9.238;2022-09-01T10:55:22;24.00;92.40
736;DHT22;352;48.626;9.238;2022-09-01T10:57:56;24.10;92.60
736;DHT22;352;48.626;9.238;2022-09-01T11:00:46;24.20;92.90
736;DHT22;352;48.626;9.238;2022-09-01T11:09:24;24.30;92.70
736;DHT22;352;48.626;9.238;2022-09-01T11:12:16;24.50;92.30
736;DHT22;352;48.626;9.238;2022-09-01T11:14:47;24.60;92.50
736;DHT22;352;48.626;9.238;2022-09-01T11:17:19;24.90;92.10
736;DHT22;352;48.626;9.238;2022-09-01T11:19:55;24.60;91.80
736;DHT22;352;48.626;9.238;2022-09-01T11:22:30;24.30;91.80
736;DHT22;352;48.626;9.238;2022-09-01T11:25:35;24.20;92.10
736;DHT22;352;48.626;9.238;2022-09-01T11:28:05;24.30;92.50
736;DHT22;352;48.626;9.238;2022-09-01T11:30:40;24.30;92.50
736;DHT22;352;48.626;9.238;2022-09-01T11:33:25;24.30;92.60
736;DHT22;352;48.626;9.238;2022-09-01T11:35:58;24.30;91.80
736;DHT22;352;48.626;9.238;2022-09-01T11:38:26;24.40;91.60
736;DHT22;352;48.626;9.238;2022-09-01T11:40:56;24.50;91.60
736;DHT22;352;48.626;9.238;2022-09-01T11:43:24;24.50;91.70
736;DHT22;352;48.626;9.238;2022-09-01T11:46:03;24.60;92.30
736;DHT22;352;48.626;9.238;2022-09-01T11:48:32;24.70;91.10
736;DHT22;352;48.626;9.238;2022-09-01T11:51:01;24.70;90.70
736;DHT22;352;48.626;9.238;2022-09-01T11:53:28;24.80;90.90
736;DHT22;352;48.626;9.238;2022-09-01T11:56:11;24.70;89.60
736;DHT22;352;48.626;9.238;2022-09-01T11:58:39;24.60;90.80
736;DHT22;352;48.626;9.238;2022-09-01T12:01:18;24.70;90.50
736;DHT22;352;48.626;9.238;2022-09-01T12:03:46;24.60;90.60
736;DHT22;352;48.626;9.238;2022-09-01T12:06:19;24.70;90.60
736;DHT22;352;48.626;9.238;2022-09-01T12:08:52;24.90;91.00
736;DHT22;352;48.626;9.238;2022-09-01T12:11:23;25.00;90.20
736;DHT22;352;48.626;9.238;2022-09-01T12:13:56;25.00;89.80
736;DHT22;352;48.626;9.238;2022-09-01T12:16:23;24.60;90.80
736;DHT22;352;48.626;9.238;2022-09-01T12:18:52;24.50;91.30
736;DHT22;352;48.626;9.238;2022-09-01T12:21:21;24.60;92.20
736;DHT22;352;48.626;9.238;2022-09-01T12:23:49;24.70;91.20
736;DHT22;352;48.626;9.238;2022-09-01T12:26:18;24.50;91.10
736;DHT22;352;48.626;9.238;2022-09-01T12:28:46;24.30;91.70
736;DHT22;352;48.626;9.238;2022-09-01T12:31:16;23.90;91.70
736;DHT22;352;48.626;9.238;2022-09-01T12:33:44;23.90;92.40
736;DHT22;352;48.626;9.238;2022-09-01T12:36:20;23.90;92.10
736;DHT22;352;48.626;9.238;2022-09-01T12:38:48;24.20;91.70
736;DHT22;352;48.626;9.238;2022-09-01T12:41:23;24.60;91.60
736;DHT22;352;48.626;9.238;2022-09-01T12:43:52;24.40;90.70
736;DHT22;352;48.626;9.238;2022-09-01T12:46:39;24.30;91.10
736;DHT22;352;48.626;9.238;2022-09-01T12:49:16;24.20;91.50
736;DHT22;352;48.626;9.238;2022-09-01T12:51:44;24.10;91.70
736;DHT22;352;48.626;9.238;2022-09-01T12:54:13;24.10;91.50
736;DHT22;352;48.626;9.238;2022-09-01T12:56:47;24.10;91.10
736;DHT22;352;48.626;9.238;2022-09-01T12:59:22;24.10;91.50
736;DHT22;352;48.626;9.238;2022-09-01T13:01:49;24.10;91.70
736;DHT22;352;48.626;9.238;2022-09-01T13:04:25;24.30;91.80
736;DHT22;352;48.626;9.238;2022-09-01T13:06:53;24.60;91.30
736;DHT22;352;48.626;9.238;2022-09-01T13:09:20;24.60;91.30
736;DHT22;352;48.626;9.238;2022-09-01T13:11:47;24.70;91.60
736;DHT22;352;48.626;9.238;2022-09-01T13:14:14;24.80;91.10
736;DHT22;352;48.626;9.238;2022-09-01T13:16:42;24.80;90.60
736;DHT22;352;48.626;9.238;2022-09-01T13:19:09;24.90;90.90
736;DHT22;352;48.626;9.238;2022-09-01T13:21:36;24.70;90.30
736;DHT22;352;48.626;9.238;2022-09-01T13:24:04;24.60;90.70
736;DHT22;352;48.626;9.238;2022-09-01T13:26:31;24.50;90.40
736;DHT22;352;48.626;9.238;2022-09-01T13:28:59;24.50;90.60
736;DHT22;352;48.626;9.238;2022-09-01T13:31:26;24.40;90.60
736;DHT22;352;48.626;9.238;2022-09-01T13:33:56;24.50;91.10
736;DHT22;352;48.626;9.238;2022-09-01T13:36:22;24.50;91.40
736;DHT22;352;48.626;9.238;2022-09-01T13:38:49;24.50;90.90
736;DHT22;352;48.626;9.238;2022-09-01T13:41:16;24.40;90.80
736;DHT22;352;48.626;9.238;2022-09-01T13:43:43;24.50;91.30
736;DHT22;352;48.626;9.238;2022-09-01T13:46:11;24.50;91.00
736;DHT22;352;48.626;9.238;2022-09-01T13:48:38;24.40;91.30
736;DHT22;352;48.626;9.238;2022-09-01T13:51:06;24.40;90.90
736;DHT22;352;48.626;9.238;2022-09-01T13:53:34;24.30;91.00
736;DHT22;352;48.626;9.238;2022-09-01T13:56:01;24.20;91.00
736;DHT22;352;48.626;9.238;2022-09-01T13:58:30;24.10;91.10
736;DHT22;352;48.626;9.238;2022-09-01T14:00:57;23.80;91.00
736;DHT22;352;48.626;9.238;2022-09-01T14:03:24;23.70;90.70
736;DHT22;352;48.626;9.238;2022-09-01T14:05:51;23.70;91.80
736;DHT22;352;48.626;9.238;2022-09-01T14:08:20;23.60;91.90
736;DHT22;352;48.626;9.238;2022-09-01T14:10:49;23.60;92.50
736;DHT22;352;48.626;9.238;2022-09-01T14:13:17;23.70;92.40
736;DHT22;352;48.626;9.238;2022-09-01T14:15:44;23.70;92.40
736;DHT22;352;48.626;9.238;2022-09-01T14:18:11;23.70;92.00
736;DHT22;352;48.626;9.238;2022-09-01T14:20:42;23.70;92.10
736;DHT22;352;48.626;9.238;2022-09-01T14:23:10;23.70;91.60
736;DHT22;352;48.626;9.238;2022-09-01T14:25:43;23.60;92.00
736;DHT22;352;48.626;9.238;2022-09-01T14:28:11;23.60;91.50
736;DHT22;352;48.626;9.238;2022-09-01T14:30:39;23.60;91.70
736;DHT22;352;48.626;9.238;2022-09-01T14:33:07;23.50;92.10
736;DHT22;352;48.626;9.238;2022-09-01T14:35:37;23.40;91.50
736;DHT22;352;48.626;9.238;2022-09-01T14:38:04;23.40;92.00
736;DHT22;352;48.626;9.238;2022-09-01T14:40:32;23.50;92.10
736;DHT22;352;48.626;9.238;2022-09-01T14:43:03;23.50;91.60
736;DHT22;352;48.626;9.238;2022-09-01T14:45:31;23.60;91.60
736;DHT22;352;48.626;9.238;2022-09-01T14:47:59;23.50;91.40
736;DHT22;352;48.626;9.238;2022-09-01T14:50:27;23.50;91.60
736;DHT22;352;48.626;9.238;2022-09-01T14:52:57;23.40;91.90
736;DHT22;352;48.626;9.238;2022-09-01T14:55:26;23.50;91.90
736;DHT22;352;48.626;9.238;2022-09-01T14:57:54;23.40;91.90
736;DHT22;352;48.626;9.238;2022-09-01T15:00:23;23.50;92.00
736;DHT22;352;48.626;9.238;2022-09-01T15:02:51;23.50;91.00
736;DHT22;352;48.626;9.238;2022-09-01T15:05:18;23.50;91.10
736;DHT22;352;48.626;9.238;2022-09-01T15:07:45;23.50;91.20
736;DHT22;352;48.626;9.238;2022-09-01T15:10:16;23.50;91.70
736;DHT22;352;48.626;9.238;2022-09-01T15:12:43;23.50;91.60
736;DHT22;352;48.626;9.238;2022-09-01T15:15:10;23.40;91.70
736;DHT22;352;48.626;9.238;2022-09-01T15:17:38;23.30;91.30
736;DHT22;352;48.626;9.238;2022-09-01T15:20:05;23.30;91.90
736;DHT22;352;48.626;9.238;2022-09-01T15:22:50;23.30;91.80
736;DHT22;352;48.626;9.238;2022-09-01T15:25:17;23.30;91.60
736;DHT22;352;48.626;9.238;2022-09-01T15:27:44;23.40;91.80
736;DHT22;352;48.626;9.238;2022-09-01T15:30:12;23.30;91.70
736;DHT22;352;48.626;9.238;2022-09-01T15:32:43;23.30;91.80
736;DHT22;352;48.626;9.238;2022-09-01T15:35:12;23.40;90.90
736;DHT22;352;48.626;9.238;2022-09-01T15:37:39;23.40;90.90
736;DHT22;352;48.626;9.238;2022-09-01T15:40:07;23.30;90.70
736;DHT22;352;48.626;9.238;2022-09-01T15:42:35;23.00;91.10
736;DHT22;352;48.626;9.238;2022-09-01T15:45:05;23.00;91.60
736;DHT22;352;48.626;9.238;2022-09-01T15:47:32;22.90;92.10
736;DHT22;352;48.626;9.238;2022-09-01T15:50:01;22.90;91.80
736;DHT22;352;48.626;9.238;2022-09-01T15:52:29;22.90;91.80
736;DHT22;352;48.626;9.238;2022-09-01T15:54:55;22.90;92.30
736;DHT22;352;48.626;9.238;2022-09-01T15:57:22;22.90;91.80
736;DHT22;352;48.626;9.238;2022-09-01T15:59:49;22.90;92.00
736;DHT22;352;48.626;9.238;2022-09-01T16:02:16;22.80;92.00
736;DHT22;352;48.626;9.238;2022-09-01T16:04:45;22.80;91.80
736;DHT22;352;48.626;9.238;2022-09-01T16:07:13;22.80;91.80
736;DHT22;352;48.626;9.238;2022-09-01T16:09:40;22.70;91.50
736;DHT22;352;48.626;9.238;2022-09-01T16:12:07;22.70;91.40
736;DHT22;352;48.626;9.238;2022-09-01T16:14:34;22.70;91.60
736;DHT22;352;48.626;9.238;2022-09-01T16:17:02;22.70;92.20
736;DHT22;352;48.626;9.238;2022-09-01T16:19:40;22.60;92.00
736;DHT22;352;48.626;9.238;2022-09-01T16:22:20;22.70;92.10
736;DHT22;352;48.626;9.238;2022-09-01T16:24:49;22.60;92.60
736;DHT22;352;48.626;9.238;2022-09-01T16:27:18;22.60;92.30
736;DHT22;352;48.626;9.238;2022-09-01T16:29:48;22.60;91.50
736;DHT22;352;48.626;9.238;2022-09-01T16:32:16;22.50;91.90
736;DHT22;352;48.626;9.238;2022-09-01T16:34:46;22.50;92.50
736;DHT22;352;48.626;9.238;2022-09-01T16:37:24;22.50;92.50
736;DHT22;352;48.626;9.238;2022-09-01T16:39:59;22.40;92.30
736;DHT22;352;48.626;9.238;2022-09-01T16:42:33;22.40;92.30
736;DHT22;352;48.626;9.238;2022-09-01T16:45:06;22.30;92.80
736;DHT22;352;48.626;9.238;2022-09-01T16:47:55;22.30;93.10
736;DHT22;352;48.626;9.238;2022-09-01T16:50:33;22.30;93.30
736;DHT22;352;48.626;9.238;2022-09-01T16:53:37;22.30;92.70
736;DHT22;352;48.626;9.238;2022-09-01T16:56:09;22.10;92.80
736;DHT22;352;48.626;9.238;2022-09-01T16:58:43;22.10;92.80
736;DHT22;352;48.626;9.238;2022-09-01T17:01:20;22.20;92.90
736;DHT22;352;48.626;9.238;2022-09-01T17:03:55;22.20;93.10
736;DHT22;352;48.626;9.238;2022-09-01T17:06:27;22.10;93.30